Time;durP1;ratioP1;P1;durP2;ratioP2;P2;SDS_P1;SDS_P2;PMS_P1;PMS_P2;Temp;Humidity;BMP_temperature;BMP_pressure;BME280_temperature;BME280_humidity;BME280_pressure;Samples;Min_cycle;Max_cycle;Signal;HPM_P1;HPM_P2
2023/08/29 00:00:29;;;;;;;7.13;6.83;;;17.50;28.00;;;;;;5033225;28;20169;-76
2023/08/29 00:02:55;;;;;;;8.13;6.60;;;17.50;28.30;;;;;;5032819;28;20235;-76
2023/08/29 00:05:20;;;;;;;7.27;6.70;;;17.50;28.10;;;;;;5033562;28;20179;-76
2023/08/29 00:07:46;;;;;;;7.53;7.23;;;17.50;28.20;;;;;;5033942;28;20679;-76
2023/08/29 00:10:12;;;;;;;6.77;6.50;;;17.50;27.90;;;;;;5033164;28;20188;-77
2023/08/29 00:12:38;;;;;;;7.20;6.80;;;17.50;28.10;;;;;;5032930;28;20234;-76
2023/08/29 00:15:05;;;;;;;7.13;6.80;;;17.50;28.30;;;;;;5032777;28;20180;-76
2023/08/29 00:17:30;;;;;;;7.37;7.07;;;17.50;28.30;;;;;;5032431;28;20451;-76
2023/08/29 00:19:56;;;;;;;7.00;6.70;;;17.50;28.30;;;;;;5031736;28;20425;-77
2023/08/29 00:22:21;;;;;;;7.63;7.30;;;17.50;28.30;;;;;;5031985;28;20257;-76
2023/08/29 00:24:48;;;;;;;7.70;7.30;;;17.50;28.30;;;;;;5032857;28;20208;-76
2023/08/29 00:27:14;;;;;;;7.60;7.10;;;17.50;28.30;;;;;;5032420;28;20204;-76
2023/08/29 00:29:42;;;;;;;6.93;6.57;;;17.50;28.30;;;;;;5032288;28;20525;-77
2023/08/29 00:32:08;;;;;;;6.97;6.67;;;17.50;28.30;;;;;;5032327;28;20983;-77
2023/08/29 00:34:34;;;;;;;7.10;6.80;;;17.60;28.40;;;;;;5032764;28;20423;-76
2023/08/29 00:36:59;;;;;;;7.10;6.70;;;17.50;28.30;;;;;;5032614;28;20240;-78
2023/08/29 00:39:25;;;;;;;7.60;7.10;;;17.50;28.30;;;;;;5032518;28;20173;-76
2023/08/29 00:41:51;;;;;;;7.40;7.00;;;17.50;28.70;;;;;;5033377;28;20674;-76
2023/08/29 00:44:17;;;;;;;7.10;6.70;;;17.50;28.80;;;;;;5032684;28;20263;-76
2023/08/29 00:46:44;;;;;;;7.33;7.03;;;17.50;28.30;;;;;;5033513;28;20463;-76
2023/08/29 00:49:11;;;;;;;7.23;6.93;;;17.50;28.30;;;;;;5032835;28;20195;-77
2023/08/29 00:51:37;;;;;;;7.37;7.03;;;17.40;28.20;;;;;;5033695;28;20415;-77
2023/08/29 00:54:03;;;;;;;7.53;7.10;;;17.40;29.10;;;;;;5034393;28;20443;-77
2023/08/29 00:56:29;;;;;;;7.60;7.30;;;17.40;29.10;;;;;;5033989;28;20426;-77
2023/08/29 00:58:54;;;;;;;7.10;6.80;;;17.40;29.00;;;;;;5033512;28;20250;-78
2023/08/29 01:01:21;;;;;;;7.47;7.00;;;17.40;29.20;;;;;;5033886;28;20172;-77
2023/08/29 01:03:47;;;;;;;7.20;6.90;;;17.50;28.40;;;;;;5033607;28;20661;-77
2023/08/29 01:06:13;;;;;;;8.07;7.57;;;17.50;29.20;;;;;;5033486;28;20451;-77
2023/08/29 01:08:40;;;;;;;7.20;6.87;;;17.50;29.40;;;;;;5033606;28;20169;-77
2023/08/29 01:11:19;;;;;;;6.50;6.20;;;17.40;29.00;;;;;;5033529;28;20418;-78
2023/08/29 01:14:06;;;;;;;7.20;6.70;;;17.40;28.80;;;;;;5035473;28;20407;-77
2023/08/29 01:16:37;;;;;;;7.33;7.00;;;17.50;28.90;;;;;;5034600;28;20446;-78
2023/08/29 01:19:12;;;;;;;6.47;6.27;;;17.50;28.70;;;;;;5032285;28;20439;-78
2023/08/29 01:22:12;;;;;;;7.50;7.10;;;17.40;29.20;;;;;;5036011;28;20415;-77
2023/08/29 01:25:15;;;;;;;7.40;7.00;;;17.40;28.50;;;;;;5041110;28;20479;-77
2023/08/29 01:27:42;;;;;;;6.90;6.60;;;17.40;28.60;;;;;;5036483;28;20446;-77
2023/08/29 01:30:08;;;;;;;7.73;7.13;;;17.50;29.20;;;;;;5036978;28;20419;-77
2023/08/29 01:32:35;;;;;;;8.10;7.70;;;17.30;29.40;;;;;;5037714;28;20502;-77
2023/08/29 01:35:01;;;;;;;8.03;7.63;;;17.30;29.30;;;;;;5039630;28;20404;-77
2023/08/29 01:37:27;;;;;;;7.73;7.43;;;17.30;29.60;;;;;;5036061;28;20435;-77
2023/08/29 01:39:52;;;;;;;7.57;7.27;;;17.40;29.00;;;;;;5038287;28;20936;-76
2023/08/29 01:42:18;;;;;;;8.07;7.67;;;17.40;29.30;;;;;;5037658;28;20254;-78
2023/08/29 01:44:44;;;;;;;7.10;6.80;;;17.50;28.80;;;;;;5037454;28;20261;-78
2023/08/29 01:47:09;;;;;;;7.23;6.93;;;17.50;29.10;;;;;;5038126;28;20191;-77
2023/08/29 01:49:36;;;;;;;8.17;7.77;;;17.50;28.90;;;;;;5037459;28;20173;-78
2023/08/29 01:52:01;;;;;;;8.47;8.07;;;17.50;28.80;;;;;;5037972;28;20658;-78
2023/08/29 01:54:27;;;;;;;7.77;7.30;;;17.50;29.30;;;;;;5037780;28;20411;-78
2023/08/29 01:56:55;;;;;;;7.60;7.20;;;17.50;29.70;;;;;;5037659;28;20732;-77
2023/08/29 01:59:21;;;;;;;7.57;7.17;;;17.50;29.90;;;;;;5037327;28;20442;-78
2023/08/29 02:01:47;;;;;;;8.13;7.73;;;17.50;29.40;;;;;;5040380;28;20817;-78
2023/08/29 02:04:13;;;;;;;7.70;7.20;;;17.50;28.80;;;;;;5041961;28;20404;-77
2023/08/29 02:10:01;;;;;;;8.80;8.30;;;17.50;28.60;;;;;;5039519;28;20195;-77
2023/08/29 02:12:26;;;;;;;8.10;7.70;;;17.50;28.30;;;;;;5037416;28;20423;-76
2023/08/29 02:14:52;;;;;;;8.83;8.43;;;17.50;29.40;;;;;;5037258;28;20173;-77
2023/08/29 02:17:17;;;;;;;8.70;8.20;;;17.40;29.10;;;;;;5035928;28;20224;-76
2023/08/29 02:19:43;;;;;;;8.60;8.20;;;17.40;29.20;;;;;;5035585;28;20184;-77
2023/08/29 02:22:09;;;;;;;8.23;7.93;;;17.40;29.00;;;;;;5034898;28;20579;-77
2023/08/29 02:24:34;;;;;;;8.40;7.93;;;17.50;28.80;;;;;;5035188;28;20537;-77
2023/08/29 02:27:00;;;;;;;7.90;7.60;;;17.50;28.30;;;;;;5034847;28;20662;-77
2023/08/29 02:29:25;;;;;;;8.43;7.97;;;17.40;29.50;;;;;;5034694;28;20180;-77
2023/08/29 02:31:51;;;;;;;9.40;8.90;;;17.50;29.40;;;;;;5034837;28;20180;-77
2023/08/29 02:34:16;;;;;;;8.73;8.30;;;17.50;29.60;;;;;;5034517;28;20188;-77
2023/08/29 02:36:42;;;;;;;8.13;7.77;;;17.50;29.10;;;;;;5034470;28;20196;-76
2023/08/29 02:39:08;;;;;;;8.67;8.07;;;17.50;29.10;;;;;;5034088;28;20173;-77
2023/08/29 02:41:33;;;;;;;8.87;8.37;;;17.50;29.10;;;;;;5032840;28;20423;-77
2023/08/29 02:43:59;;;;;;;8.57;8.07;;;17.50;28.70;;;;;;5034360;28;20173;-77
2023/08/29 02:46:24;;;;;;;9.00;8.53;;;17.50;29.00;;;;;;5034238;28;20196;-77
2023/08/29 02:48:50;;;;;;;8.77;8.27;;;17.50;28.40;;;;;;5033559;28;20711;-78
2023/08/29 02:51:15;;;;;;;8.20;7.70;;;17.50;28.80;;;;;;5033577;28;20256;-77
2023/08/29 02:53:41;;;;;;;8.37;7.97;;;17.50;29.00;;;;;;5032295;28;20173;-77
2023/08/29 02:56:07;;;;;;;9.07;8.37;;;17.60;28.90;;;;;;5033972;28;20176;-78
2023/08/29 02:58:32;;;;;;;8.87;8.23;;;17.60;29.10;;;;;;5033175;28;20192;-77
2023/08/29 03:00:59;;;;;;;9.17;8.70;;;17.60;28.80;;;;;;5033636;28;20180;-77
2023/08/29 03:03:25;;;;;;;9.40;8.83;;;17.60;28.80;;;;;;5033783;28;20291;-77
2023/08/29 03:05:55;;;;;;;9.10;8.60;;;17.60;28.30;;;;;;5034119;28;20448;-76
2023/08/29 03:08:20;;;;;;;9.90;9.40;;;17.60;28.30;;;;;;5033596;28;20813;-74
2023/08/29 03:10:46;;;;;;;9.37;8.87;;;17.60;28.30;;;;;;5033600;28;20403;-76
2023/08/29 03:13:11;;;;;;;9.00;8.60;;;17.60;28.50;;;;;;5033613;28;20230;-75
2023/08/29 03:15:40;;;;;;;9.90;9.50;;;17.60;28.40;;;;;;5033766;28;20234;-75
2023/08/29 03:18:05;;;;;;;10.00;9.60;;;17.60;28.30;;;;;;5031852;28;20585;-76
2023/08/29 03:20:31;;;;;;;10.23;9.63;;;17.60;28.40;;;;;;5033908;28;20411;-75
2023/08/29 03:22:57;;;;;;;10.23;9.70;;;17.70;28.40;;;;;;5033789;28;20212;-75
2023/08/29 03:25:22;;;;;;;9.90;9.10;;;17.70;28.70;;;;;;5033733;28;20260;-75
2023/08/29 03:27:49;;;;;;;10.03;9.53;;;17.70;28.40;;;;;;5033089;28;20768;-75
2023/08/29 03:30:15;;;;;;;9.30;8.80;;;17.70;28.50;;;;;;5033125;28;20169;-76
2023/08/29 03:32:40;;;;;;;9.73;9.23;;;17.60;28.80;;;;;;5033188;28;20407;-74
2023/08/29 03:35:07;;;;;;;9.13;8.73;;;17.60;28.30;;;;;;5033694;28;20251;-76
2023/08/29 03:37:33;;;;;;;9.70;9.30;;;17.60;28.40;;;;;;5034034;28;20193;-76
2023/08/29 03:39:59;;;;;;;9.63;9.13;;;17.50;28.90;;;;;;5034301;28;20917;-77
2023/08/29 03:42:24;;;;;;;10.10;9.50;;;17.50;29.30;;;;;;5034024;28;20458;-76
2023/08/29 03:44:50;;;;;;;10.00;9.50;;;17.50;29.20;;;;;;5033390;28;20169;-76
2023/08/29 03:47:15;;;;;;;10.30;9.73;;;17.50;29.10;;;;;;5033412;28;20212;-76
2023/08/29 03:49:41;;;;;;;11.00;10.50;;;17.40;29.60;;;;;;5032757;28;20184;-75
2023/08/29 03:52:06;;;;;;;9.70;9.07;;;17.50;29.80;;;;;;5031975;28;20187;-76
2023/08/29 03:54:32;;;;;;;10.60;10.20;;;17.50;29.40;;;;;;5032542;28;20172;-74
2023/08/29 03:56:57;;;;;;;10.53;9.93;;;17.50;29.70;;;;;;5032590;28;20193;-76
2023/08/29 03:59:23;;;;;;;11.30;10.80;;;17.50;29.50;;;;;;5032585;28;20252;-77
2023/08/29 04:01:48;;;;;;;11.47;10.77;;;17.60;29.80;;;;;;5032538;28;20169;-78
2023/08/29 04:04:14;;;;;;;12.00;11.03;;;17.60;29.20;;;;;;5033091;28;20169;-77
2023/08/29 04:06:39;;;;;;;13.30;12.60;;;17.50;29.10;;;;;;5032932;28;20188;-77
2023/08/29 04:09:08;;;;;;;13.00;12.50;;;17.30;29.80;;;;;;5033018;28;20215;-76
2023/08/29 04:11:34;;;;;;;13.00;12.27;;;17.30;30.50;;;;;;5033671;28;20169;-77
2023/08/29 04:14:01;;;;;;;12.37;11.83;;;17.20;30.00;;;;;;5032616;28;20494;-77
2023/08/29 04:16:26;;;;;;;13.40;12.80;;;17.30;30.90;;;;;;5032483;28;20227;-77
2023/08/29 04:18:52;;;;;;;13.70;13.10;;;17.30;31.10;;;;;;5032522;28;20407;-77
2023/08/29 04:21:17;;;;;;;13.73;12.97;;;17.30;30.70;;;;;;5032623;28;20259;-78
2023/08/29 04:23:43;;;;;;;14.10;13.20;;;17.20;31.10;;;;;;5032527;28;20207;-77
2023/08/29 04:26:08;;;;;;;14.57;13.47;;;17.30;31.10;;;;;;5032421;28;20169;-77
2023/08/29 04:28:34;;;;;;;12.30;11.60;;;17.30;30.30;;;;;;5032277;28;20687;-76
2023/08/29 04:31:09;;;;;;;13.60;13.00;;;17.30;31.10;;;;;;5031993;28;20419;-77
2023/08/29 04:33:35;;;;;;;14.17;13.27;;;17.40;31.10;;;;;;5031347;28;20185;-76
2023/08/29 04:36:01;;;;;;;12.73;12.13;;;17.40;31.20;;;;;;5032353;28;20414;-77
2023/08/29 04:38:26;;;;;;;12.13;11.53;;;17.30;30.10;;;;;;5030548;28;20697;-77
2023/08/29 04:40:55;;;;;;;14.17;13.27;;;17.30;30.60;;;;;;5032449;28;20544;-76
2023/08/29 04:43:20;;;;;;;15.77;14.97;;;17.30;30.20;;;;;;5032051;28;20211;-76
2023/08/29 04:45:46;;;;;;;13.53;12.77;;;17.30;30.30;;;;;;5032933;28;20805;-77
2023/08/29 04:48:12;;;;;;;13.93;13.13;;;17.40;30.40;;;;;;5035425;28;20196;-76
2023/08/29 04:50:37;;;;;;;14.13;13.33;;;17.30;30.70;;;;;;5032136;28;20173;-76
2023/08/29 04:53:03;;;;;;;13.20;12.50;;;17.40;30.50;;;;;;5032113;28;20546;-76
2023/08/29 04:55:29;;;;;;;13.47;12.87;;;17.30;30.40;;;;;;5031936;28;20172;-75
2023/08/29 04:57:56;;;;;;;15.07;14.17;;;17.30;30.70;;;;;;5031914;28;20431;-77
2023/08/29 05:00:22;;;;;;;14.80;14.10;;;17.20;30.50;;;;;;5030989;28;20733;-75
2023/08/29 05:02:48;;;;;;;14.23;13.53;;;17.30;31.00;;;;;;5030531;28;20463;-77
2023/08/29 05:05:14;;;;;;;15.97;15.13;;;17.20;31.40;;;;;;5034522;28;20739;-76
2023/08/29 05:07:39;;;;;;;15.83;15.03;;;17.20;31.70;;;;;;5035335;28;20527;-76
2023/08/29 05:10:06;;;;;;;14.30;13.40;;;17.20;31.60;;;;;;5035207;28;20173;-76
2023/08/29 05:12:31;;;;;;;16.23;15.43;;;17.10;32.80;;;;;;5035949;28;20666;-76
2023/08/29 05:14:57;;;;;;;16.17;15.27;;;17.10;32.80;;;;;;5035780;28;20423;-76
2023/08/29 05:17:22;;;;;;;16.40;15.40;;;17.10;33.90;;;;;;5035099;28;20209;-75
2023/08/29 05:19:49;;;;;;;16.67;15.63;;;17.10;33.60;;;;;;5035285;28;20255;-75
2023/08/29 05:22:15;;;;;;;16.60;15.77;;;17.10;34.10;;;;;;5034808;28;20255;-76
2023/08/29 05:24:40;;;;;;;16.20;14.97;;;17.00;34.80;;;;;;5035616;28;20415;-75
2023/08/29 05:27:06;;;;;;;15.73;14.83;;;17.00;35.50;;;;;;5035911;28;20623;-75
2023/08/29 05:29:31;;;;;;;17.00;16.20;;;17.00;35.20;;;;;;5034496;28;20247;-76
2023/08/29 05:31:57;;;;;;;16.53;15.50;;;17.00;35.60;;;;;;5015471;28;20190;-75
2023/08/29 05:34:22;;;;;;;15.80;15.00;;;17.00;34.70;;;;;;5014433;28;20272;-76
2023/08/29 05:36:49;;;;;;;15.67;14.97;;;17.10;34.80;;;;;;5014807;28;20243;-74
2023/08/29 05:39:15;;;;;;;17.20;15.50;;;17.20;34.70;;;;;;5018168;28;20185;-76
2023/08/29 05:41:40;;;;;;;16.53;15.57;;;17.20;34.90;;;;;;5025776;28;20754;-75
2023/08/29 05:44:06;;;;;;;16.93;15.83;;;17.20;35.20;;;;;;5032057;28;20526;-75
2023/08/29 05:46:31;;;;;;;17.43;16.50;;;17.20;35.20;;;;;;5034630;28;20203;-75
2023/08/29 05:48:59;;;;;;;17.73;16.57;;;17.20;35.00;;;;;;5034764;28;20526;-75
2023/08/29 05:51:28;;;;;;;17.37;16.30;;;17.20;34.50;;;;;;5034947;28;20165;-75
2023/08/29 05:53:53;;;;;;;16.10;15.30;;;17.10;35.10;;;;;;5033915;28;20426;-77
2023/08/29 05:56:19;;;;;;;16.23;15.03;;;17.20;36.20;;;;;;5027915;28;20423;-76
2023/08/29 05:58:46;;;;;;;16.80;16.00;;;17.20;35.40;;;;;;5029962;28;20548;-76
2023/08/29 06:01:11;;;;;;;16.10;15.30;;;17.20;34.70;;;;;;5034645;28;20893;-75
2023/08/29 06:03:37;;;;;;;16.40;15.60;;;17.20;35.10;;;;;;5035690;28;20465;-77
2023/08/29 06:06:03;;;;;;;16.33;15.53;;;17.20;35.40;;;;;;5026925;28;20270;-76
2023/08/29 06:08:34;;;;;;;16.10;15.00;;;17.30;35.30;;;;;;5033186;28;20211;-76
2023/08/29 06:11:00;;;;;;;16.83;16.03;;;17.20;34.80;;;;;;5033548;28;20407;-76
2023/08/29 06:13:27;;;;;;;16.40;15.60;;;17.20;35.00;;;;;;5035938;28;20441;-75
2023/08/29 06:15:53;;;;;;;16.67;15.87;;;17.30;35.60;;;;;;5043882;28;20494;-76
2023/08/29 06:18:19;;;;;;;16.40;15.60;;;17.30;35.10;;;;;;5044830;28;20470;-75
2023/08/29 06:20:44;;;;;;;16.97;15.97;;;17.30;34.60;;;;;;5044449;28;20787;-75
2023/08/29 06:23:10;;;;;;;16.43;15.60;;;17.30;34.70;;;;;;5041446;28;20678;-76
2023/08/29 06:25:35;;;;;;;15.70;14.90;;;17.30;34.40;;;;;;5034866;28;20169;-76
2023/08/29 06:28:01;;;;;;;16.47;15.47;;;17.30;34.50;;;;;;5033878;28;20180;-76
2023/08/29 06:30:27;;;;;;;15.50;14.70;;;17.30;35.10;;;;;;5034172;28;20169;-76
2023/08/29 06:32:52;;;;;;;16.03;14.77;;;17.30;34.90;;;;;;5032919;28;20181;-76
2023/08/29 06:35:18;;;;;;;14.67;13.87;;;17.30;34.90;;;;;;5032656;28;20220;-75
2023/08/29 06:37:44;;;;;;;15.80;15.00;;;17.40;34.40;;;;;;5034015;28;20722;-75
2023/08/29 06:40:10;;;;;;;15.47;14.67;;;17.30;34.30;;;;;;5034355;28;20207;-75
2023/08/29 06:42:37;;;;;;;16.17;15.37;;;17.40;34.70;;;;;;5036153;28;20873;-76
2023/08/29 06:45:04;;;;;;;16.13;15.23;;;17.40;34.50;;;;;;5042105;28;20176;-77
2023/08/29 06:47:29;;;;;;;15.57;14.73;;;17.30;35.40;;;;;;5040371;28;20458;-75
2023/08/29 06:49:55;;;;;;;14.60;13.43;;;17.40;34.70;;;;;;5032725;28;20419;-76
2023/08/29 06:52:21;;;;;;;14.77;13.93;;;17.30;34.30;;;;;;5033963;28;20539;-76
2023/08/29 06:54:47;;;;;;;15.23;14.20;;;17.40;34.30;;;;;;5033219;28;20176;-76
2023/08/29 06:57:12;;;;;;;14.60;13.80;;;17.40;34.90;;;;;;5033242;28;20431;-77
2023/08/29 06:59:38;;;;;;;16.10;15.10;;;17.40;35.10;;;;;;5033318;28;20180;-77
2023/08/29 07:02:04;;;;;;;15.60;14.60;;;17.40;35.10;;;;;;5033154;28;20701;-76
2023/08/29 07:04:30;;;;;;;15.27;13.90;;;17.40;34.90;;;;;;5032974;28;20941;-75
2023/08/29 07:06:55;;;;;;;14.30;13.60;;;17.40;34.50;;;;;;5033698;28;20205;-76
2023/08/29 07:09:21;;;;;;;14.80;14.10;;;17.30;35.40;;;;;;5033007;28;20495;-76
2023/08/29 07:11:47;;;;;;;15.63;14.40;;;17.40;35.40;;;;;;5033164;28;20239;-76
2023/08/29 07:14:12;;;;;;;14.67;13.97;;;17.40;34.90;;;;;;5031705;28;20549;-76
2023/08/29 07:16:38;;;;;;;15.03;14.03;;;17.30;35.20;;;;;;5021049;28;20213;-75
2023/08/29 07:19:05;;;;;;;15.40;14.30;;;17.30;36.10;;;;;;5013160;28;20755;-76
2023/08/29 07:21:30;;;;;;;14.57;13.77;;;17.30;36.30;;;;;;5013131;28;20584;-76
2023/08/29 07:23:56;;;;;;;14.40;13.60;;;17.30;36.20;;;;;;5018738;28;20469;-76
2023/08/29 07:26:21;;;;;;;14.97;13.87;;;17.30;35.50;;;;;;5032935;28;20172;-76
2023/08/29 07:28:47;;;;;;;15.80;15.00;;;17.30;35.60;;;;;;5032470;28;20173;-77
2023/08/29 07:31:12;;;;;;;14.50;13.80;;;17.30;35.80;;;;;;5030448;28;20177;-76
2023/08/29 07:33:38;;;;;;;15.20;14.50;;;17.10;37.70;;;;;;5032140;28;20184;-77
2023/08/29 07:36:04;;;;;;;14.10;13.40;;;17.10;37.80;;;;;;5032149;28;20173;-76
2023/08/29 07:38:30;;;;;;;14.43;13.73;;;17.00;39.00;;;;;;5032078;28;20306;-75
2023/08/29 07:40:57;;;;;;;14.87;14.07;;;17.10;38.30;;;;;;5030963;28;20423;-76
2023/08/29 07:43:22;;;;;;;15.40;14.57;;;17.20;37.80;;;;;;5030811;28;20231;-76
2023/08/29 07:45:52;;;;;;;15.83;14.97;;;17.20;37.10;;;;;;5032483;28;20415;-77
2023/08/29 07:48:18;;;;;;;13.93;13.23;;;17.20;37.00;;;;;;5031515;28;20193;-75
2023/08/29 07:50:44;;;;;;;13.47;12.77;;;17.30;36.80;;;;;;5032182;28;20422;-75
2023/08/29 07:53:10;;;;;;;14.03;13.33;;;17.30;37.00;;;;;;5031929;28;20403;-75
2023/08/29 07:55:35;;;;;;;14.00;13.30;;;17.30;37.00;;;;;;5032296;28;20279;-76
2023/08/29 07:58:02;;;;;;;15.23;14.53;;;17.40;38.30;;;;;;5032114;28;20201;-75
2023/08/29 08:00:30;;;;;;;13.83;13.23;;;17.40;37.60;;;;;;5032429;28;20179;-75
2023/08/29 08:02:55;;;;;;;13.30;12.60;;;17.40;38.00;;;;;;5032010;28;20813;-75
2023/08/29 08:05:21;;;;;;;14.03;13.33;;;17.40;37.40;;;;;;5031482;28;20418;-76
2023/08/29 08:07:47;;;;;;;13.57;12.87;;;17.40;36.20;;;;;;5032160;28;20200;-78
2023/08/29 08:10:17;;;;;;;13.97;13.20;;;17.50;36.20;;;;;;5032564;28;20275;-77
2023/08/29 08:12:46;;;;;;;14.23;13.53;;;17.40;36.60;;;;;;5035184;28;20418;-77
2023/08/29 08:15:12;;;;;;;14.37;13.67;;;17.40;37.40;;;;;;5034923;28;20450;-76
2023/08/29 08:17:37;;;;;;;14.87;14.17;;;17.40;36.90;;;;;;5031895;28;20537;-77
2023/08/29 08:20:09;;;;;;;14.90;13.90;;;17.40;37.20;;;;;;5032185;28;20172;-77
2023/08/29 08:22:39;;;;;;;14.40;13.60;;;17.30;37.20;;;;;;5030260;28;20205;-76
2023/08/29 08:25:05;;;;;;;14.70;14.00;;;17.40;37.70;;;;;;5032527;28;20477;-76
2023/08/29 08:27:31;;;;;;;14.37;13.67;;;17.30;37.60;;;;;;5031373;28;20435;-76
2023/08/29 08:29:57;;;;;;;14.30;13.53;;;17.10;38.20;;;;;;5031601;28;20407;-75
2023/08/29 08:32:23;;;;;;;14.07;13.37;;;17.10;38.90;;;;;;5031083;28;20521;-76
2023/08/29 08:34:48;;;;;;;16.20;15.30;;;17.10;38.40;;;;;;5032397;28;20418;-76
2023/08/29 08:37:14;;;;;;;16.57;15.77;;;17.10;38.30;;;;;;5031862;28;20255;-76
2023/08/29 08:39:40;;;;;;;15.57;14.53;;;17.10;38.70;;;;;;5033779;28;20184;-77
2023/08/29 08:42:06;;;;;;;15.30;14.47;;;17.20;39.00;;;;;;5034572;28;21107;-76
2023/08/29 08:44:32;;;;;;;15.20;14.43;;;17.20;38.50;;;;;;5036207;28;20169;-77
2023/08/29 08:46:59;;;;;;;16.70;15.90;;;17.20;39.10;;;;;;5028278;28;20663;-76
2023/08/29 08:49:26;;;;;;;14.93;14.23;;;17.20;38.50;;;;;;5013721;28;20408;-77
2023/08/29 08:51:52;;;;;;;15.37;14.63;;;17.20;38.10;;;;;;5013908;28;20788;-76
2023/08/29 08:54:18;;;;;;;15.67;14.93;;;17.10;39.20;;;;;;5019493;28;20508;-76
2023/08/29 08:56:44;;;;;;;16.10;15.30;;;17.10;39.90;;;;;;5035616;28;20993;-76
2023/08/29 08:59:10;;;;;;;15.83;14.93;;;17.20;40.60;;;;;;5035658;28;20172;-76
2023/08/29 09:01:38;;;;;;;15.67;14.87;;;17.20;40.70;;;;;;5035372;28;20979;-76
2023/08/29 09:04:04;;;;;;;16.37;15.47;;;17.20;40.90;;;;;;5036234;28;20295;-77
2023/08/29 09:06:30;;;;;;;14.73;14.13;;;17.20;40.70;;;;;;5035406;28;20450;-77
2023/08/29 09:09:15;;;;;;;15.83;15.03;;;17.20;41.10;;;;;;5034708;28;20176;-77
2023/08/29 09:11:49;;;;;;;15.43;14.57;;;17.30;39.90;;;;;;5037147;28;20400;-76
2023/08/29 09:14:15;;;;;;;13.70;13.00;;;17.30;40.50;;;;;;5038195;28;20847;-78
2023/08/29 09:16:42;;;;;;;15.97;14.80;;;17.40;40.60;;;;;;5037957;28;20447;-77
2023/08/29 09:19:07;;;;;;;14.53;13.47;;;17.30;40.00;;;;;;5037772;28;20179;-77
2023/08/29 09:21:33;;;;;;;16.50;15.40;;;17.30;40.00;;;;;;5038536;28;20419;-77
2023/08/29 09:23:59;;;;;;;15.10;14.40;;;17.30;39.70;;;;;;5037524;28;20254;-78
2023/08/29 09:26:32;;;;;;;15.00;14.10;;;17.30;40.00;;;;;;5037187;28;20283;-78
2023/08/29 09:28:58;;;;;;;14.83;13.83;;;17.30;39.20;;;;;;5037019;28;20773;-78
2023/08/29 09:31:24;;;;;;;16.13;15.33;;;17.30;39.00;;;;;;5036632;28;20814;-76
2023/08/29 09:33:50;;;;;;;17.27;16.40;;;17.30;38.70;;;;;;5037475;28;20415;-77
2023/08/29 09:36:16;;;;;;;14.47;13.67;;;17.20;40.50;;;;;;5034617;28;20913;-76
2023/08/29 09:38:42;;;;;;;14.83;14.00;;;17.20;40.70;;;;;;5034378;28;20430;-76
2023/08/29 09:41:14;;;;;;;15.60;14.80;;;17.20;39.50;;;;;;5035612;28;20204;-77
2023/08/29 09:43:50;;;;;;;16.10;15.20;;;17.20;39.50;;;;;;5035456;28;20204;-76
2023/08/29 09:46:26;;;;;;;16.20;15.20;;;17.20;39.70;;;;;;5036440;28;20442;-75
2023/08/29 09:48:55;;;;;;;15.40;14.70;;;17.20;39.70;;;;;;5035522;28;20411;-77
2023/08/29 09:51:24;;;;;;;15.13;14.23;;;17.20;40.60;;;;;;5034953;28;20446;-77
2023/08/29 09:53:50;;;;;;;16.17;15.37;;;17.20;41.00;;;;;;5036811;28;20506;-77
2023/08/29 09:56:19;;;;;;;15.60;14.80;;;17.30;40.00;;;;;;5036739;28;20821;-77
2023/08/29 09:58:48;;;;;;;16.37;15.37;;;17.30;40.00;;;;;;5035682;28;20426;-76
2023/08/29 10:01:14;;;;;;;15.50;14.70;;;17.30;39.40;;;;;;5035403;28;20893;-76
2023/08/29 10:03:42;;;;;;;14.53;13.73;;;17.30;40.50;;;;;;5034829;28;20462;-77
2023/08/29 10:06:11;;;;;;;16.40;15.60;;;17.30;41.30;;;;;;5034704;28;20764;-77
2023/08/29 10:08:50;;;;;;;14.70;14.00;;;17.40;41.90;;;;;;5034498;28;20482;-78
2023/08/29 10:11:17;;;;;;;15.93;15.03;;;17.40;41.70;;;;;;5034440;28;20413;-77
2023/08/29 10:13:43;;;;;;;16.57;15.77;;;17.40;40.80;;;;;;5033308;28;20501;-76
2023/08/29 10:16:10;;;;;;;15.97;14.90;;;17.40;40.40;;;;;;5034249;28;20515;-77
2023/08/29 10:18:36;;;;;;;16.10;15.30;;;17.40;39.70;;;;;;5032533;28;20988;-76
2023/08/29 10:21:03;;;;;;;16.53;15.63;;;17.40;40.00;;;;;;5034016;28;20412;-75
2023/08/29 10:23:30;;;;;;;15.93;15.13;;;17.40;40.70;;;;;;5034333;28;20524;-76
2023/08/29 10:25:58;;;;;;;17.67;16.77;;;17.40;40.60;;;;;;5034133;28;20616;-76
2023/08/29 10:28:25;;;;;;;16.37;15.57;;;17.50;40.40;;;;;;5034019;28;20443;-76
2023/08/29 10:30:54;;;;;;;15.17;14.20;;;17.50;40.20;;;;;;5034369;28;20416;-76
2023/08/29 10:33:20;;;;;;;15.63;14.90;;;17.60;39.40;;;;;;5032704;28;20459;-77
2023/08/29 10:35:49;;;;;;;15.17;14.27;;;17.60;39.80;;;;;;5033777;28;20415;-76
2023/08/29 10:38:16;;;;;;;16.10;15.20;;;17.60;39.50;;;;;;5030642;28;20514;-77
2023/08/29 10:40:43;;;;;;;15.57;14.87;;;17.70;39.10;;;;;;5033579;28;20419;-77
2023/08/29 10:43:20;;;;;;;16.53;15.50;;;17.70;38.30;;;;;;5033555;28;20615;-76
2023/08/29 10:45:51;;;;;;;15.10;14.30;;;17.70;38.70;;;;;;5026627;28;20470;-77
2023/08/29 10:48:30;;;;;;;16.27;15.37;;;17.70;39.40;;;;;;5025728;28;20940;-76
2023/08/29 10:51:09;;;;;;;16.70;15.80;;;17.70;38.70;;;;;;5034177;28;20408;-77
2023/08/29 10:53:38;;;;;;;16.07;15.27;;;17.80;38.60;;;;;;5030588;28;20425;-76
2023/08/29 10:56:07;;;;;;;14.60;13.80;;;17.80;39.30;;;;;;5033149;28;20450;-76
2023/08/29 10:58:38;;;;;;;14.60;13.90;;;17.80;39.70;;;;;;5033251;28;20583;-76
2023/08/29 11:01:05;;;;;;;14.27;13.47;;;17.80;39.10;;;;;;5032111;28;20423;-77
2023/08/29 11:03:52;;;;;;;15.80;15.03;;;17.80;38.90;;;;;;5033053;28;20466;-77
2023/08/29 11:06:23;;;;;;;17.00;16.10;;;17.80;38.80;;;;;;5032906;28;20979;-77
2023/08/29 11:08:49;;;;;;;17.03;16.10;;;17.70;38.50;;;;;;5033334;28;20412;-77
2023/08/29 11:11:20;;;;;;;15.80;14.90;;;17.60;38.80;;;;;;5034094;28;20436;-77
2023/08/29 11:14:03;;;;;;;16.57;15.47;;;17.60;40.30;;;;;;5032379;28;20976;-76
2023/08/29 11:16:36;;;;;;;15.10;14.30;;;17.50;40.40;;;;;;5033356;28;20459;-77
2023/08/29 11:19:16;;;;;;;17.20;16.30;;;17.60;41.10;;;;;;5033332;28;20419;-77
2023/08/29 11:21:45;;;;;;;16.27;15.43;;;17.50;41.00;;;;;;5036135;28;20732;-79
2023/08/29 11:24:11;;;;;;;16.30;15.20;;;17.60;40.90;;;;;;5035874;28;20938;-77
2023/08/29 11:26:42;;;;;;;16.57;15.53;;;17.70;41.30;;;;;;5033395;28;20484;-77
2023/08/29 11:29:08;;;;;;;18.73;17.83;;;17.70;41.10;;;;;;5032887;28;20705;-77
2023/08/29 11:31:42;;;;;;;16.50;15.70;;;17.70;42.00;;;;;;5033646;28;20407;-77
2023/08/29 11:34:18;;;;;;;16.90;16.00;;;17.80;42.20;;;;;;5033378;28;20242;-77
2023/08/29 11:36:53;;;;;;;16.60;15.60;;;17.80;41.90;;;;;;5036769;28;20423;-77
2023/08/29 11:39:21;;;;;;;16.90;16.00;;;17.80;41.30;;;;;;5034912;28;20803;-77
2023/08/29 11:41:47;;;;;;;17.37;16.40;;;17.80;41.50;;;;;;5033232;28;20408;-77
2023/08/29 11:44:14;;;;;;;17.00;16.00;;;17.70;41.10;;;;;;5038348;28;20422;-79
2023/08/29 11:46:40;;;;;;;16.13;15.33;;;17.70;40.30;;;;;;5035493;28;20451;-78
2023/08/29 11:49:16;;;;;;;18.50;17.50;;;17.80;40.60;;;;;;5035364;28;20788;-78
2023/08/29 11:51:43;;;;;;;18.07;17.17;;;17.90;40.10;;;;;;5034576;28;20168;-79
2023/08/29 11:54:38;;;;;;;17.83;16.93;;;17.60;39.50;;;;;;5032723;28;20437;-79
2023/08/29 11:57:14;;;;;;;17.70;16.80;;;17.40;39.60;;;;;;5037201;28;20817;-78
2023/08/29 11:59:41;;;;;;;16.70;15.80;;;17.50;40.20;;;;;;5036774;28;20407;-78
2023/08/29 12:02:09;;;;;;;16.90;15.97;;;17.60;40.00;;;;;;5036499;28;20419;-79
2023/08/29 12:04:39;;;;;;;16.20;15.40;;;17.70;40.10;;;;;;5037979;28;20769;-79
2023/08/29 12:07:11;;;;;;;16.27;15.43;;;17.80;39.50;;;;;;5037052;28;20423;-79
2023/08/29 12:09:44;;;;;;;17.67;16.67;;;17.80;39.70;;;;;;5037930;28;20859;-79
2023/08/29 12:12:32;;;;;;;16.83;15.93;;;17.90;39.20;;;;;;5037217;28;20411;-78
2023/08/29 12:14:58;;;;;;;17.40;16.50;;;18.00;39.50;;;;;;5036962;28;20403;-78
2023/08/29 12:17:39;;;;;;;16.50;15.70;;;18.00;39.70;;;;;;5036572;28;20455;-78
2023/08/29 12:20:26;;;;;;;16.97;16.10;;;18.00;40.10;;;;;;5037029;28;20407;-78
2023/08/29 12:22:55;;;;;;;16.90;15.90;;;18.10;39.80;;;;;;5036661;28;20478;-79
2023/08/29 12:25:20;;;;;;;16.33;15.53;;;18.10;39.10;;;;;;5035789;28;20434;-78
2023/08/29 12:27:47;;;;;;;15.83;15.10;;;18.10;40.50;;;;;;5036607;28;20423;-78
2023/08/29 12:30:14;;;;;;;16.87;15.83;;;18.10;39.60;;;;;;5034534;28;20261;-79
2023/08/29 12:32:43;;;;;;;18.00;17.10;;;18.10;39.50;;;;;;5035027;28;20415;-78
2023/08/29 12:35:10;;;;;;;17.50;16.70;;;18.10;40.30;;;;;;5033997;28;20430;-77
2023/08/29 12:37:35;;;;;;;18.73;17.63;;;18.10;39.90;;;;;;5033022;28;20475;-77